Time;durP1;ratioP1;P1;durP2;ratioP2;P2;SDS_P1;SDS_P2;PMS_P1;PMS_P2;Temp;Humidity;BMP_temperature;BMP_pressure;BME280_temperature;BME280_humidity;BME280_pressure;Samples;Min_cycle;Max_cycle;Signal;HPM_P1;HPM_P2
2022/07/07 00:02:22;;;;;;;2.30;2.10;;;13.90;77.80;;;;;;5051093;28;20606;-89
2022/07/07 00:04:49;;;;;;;1.30;1.20;;;13.90;77.40;;;;;;5050959;28;20621;-88
2022/07/07 00:07:16;;;;;;;1.90;1.60;;;14.00;77.50;;;;;;5051229;28;20602;-89
2022/07/07 00:09:44;;;;;;;1.73;1.63;;;13.90;77.10;;;;;;5051493;28;20673;-88
2022/07/07 00:12:12;;;;;;;1.97;1.40;;;14.00;78.20;;;;;;5051821;28;20606;-87
2022/07/07 00:14:41;;;;;;;1.10;1.10;;;14.00;80.40;;;;;;5051578;28;20700;-87
2022/07/07 00:17:09;;;;;;;1.80;1.43;;;14.20;78.80;;;;;;5051042;28;20961;-89
2022/07/07 00:19:40;;;;;;;1.33;1.23;;;14.30;77.80;;;;;;5051190;28;20633;-87
2022/07/07 00:22:08;;;;;;;1.30;1.20;;;14.30;76.80;;;;;;5050872;28;20650;-88
2022/07/07 00:24:36;;;;;;;0.87;0.87;;;14.20;77.10;;;;;;5050782;28;20683;-90
2022/07/07 00:27:05;;;;;;;1.60;1.50;;;14.10;77.40;;;;;;5051076;28;20613;-88
2022/07/07 00:29:32;;;;;;;1.10;1.00;;;14.10;77.90;;;;;;5051373;28;20622;-89
2022/07/07 00:32:00;;;;;;;0.70;0.70;;;14.10;78.40;;;;;;5050850;28;20680;-88
2022/07/07 00:34:28;;;;;;;2.00;1.43;;;14.10;79.10;;;;;;5050336;28;20607;-87
2022/07/07 00:36:58;;;;;;;1.87;1.70;;;14.20;77.70;;;;;;5050647;28;20613;-88
2022/07/07 00:39:26;;;;;;;1.23;1.13;;;14.20;76.70;;;;;;5050775;28;20684;-88
2022/07/07 00:41:57;;;;;;;1.30;1.20;;;14.20;79.40;;;;;;5050730;28;20671;-88
2022/07/07 00:44:26;;;;;;;1.77;1.67;;;14.10;80.20;;;;;;5050561;28;20633;-90
2022/07/07 00:46:55;;;;;;;1.13;1.13;;;13.90;80.20;;;;;;5050623;28;20602;-88
2022/07/07 00:49:23;;;;;;;1.60;1.50;;;13.90;79.90;;;;;;5050766;28;21173;-89
2022/07/07 00:51:52;;;;;;;1.40;1.00;;;13.90;80.20;;;;;;5050764;28;20642;-88
2022/07/07 00:54:19;;;;;;;4.17;1.47;;;14.00;79.80;;;;;;5050578;28;20687;-86
2022/07/07 00:56:47;;;;;;;0.87;0.87;;;13.90;80.20;;;;;;5050784;28;20614;-90
2022/07/07 00:59:14;;;;;;;1.77;1.43;;;13.90;80.80;;;;;;5050418;28;20614;-88
2022/07/07 01:01:43;;;;;;;1.20;1.10;;;14.00;81.20;;;;;;5050258;28;20622;-88
2022/07/07 01:04:12;;;;;;;1.37;1.27;;;14.00;81.00;;;;;;5052343;28;20611;-89
2022/07/07 01:06:40;;;;;;;1.80;1.70;;;14.00;81.30;;;;;;5048342;28;20676;-88
2022/07/07 01:09:07;;;;;;;1.13;1.03;;;14.10;80.90;;;;;;5050650;28;20613;-88
2022/07/07 01:11:52;;;;;;;1.60;1.40;;;14.30;76.60;;;;;;5049570;28;20634;-89
2022/07/07 01:14:20;;;;;;;0.83;0.83;;;14.50;76.20;;;;;;5050270;28;20609;-91
2022/07/07 01:16:50;;;;;;;1.27;1.17;;;14.40;76.70;;;;;;5050297;28;20799;-90
2022/07/07 01:19:18;;;;;;;1.40;1.30;;;14.50;77.80;;;;;;5050278;28;20617;-88
2022/07/07 01:21:53;;;;;;;1.93;1.77;;;14.50;78.80;;;;;;5050247;28;20664;-90
2022/07/07 01:24:24;;;;;;;2.07;1.47;;;14.50;79.10;;;;;;5049410;28;20636;-90
2022/07/07 01:27:04;;;;;;;1.77;1.67;;;14.50;79.50;;;;;;5049996;28;20785;-89
2022/07/07 01:29:35;;;;;;;1.57;1.47;;;14.60;79.90;;;;;;5050232;28;20602;-88
2022/07/07 01:32:05;;;;;;;1.83;1.70;;;14.60;80.50;;;;;;5049899;28;20737;-89
2022/07/07 01:34:33;;;;;;;1.03;1.03;;;14.70;79.30;;;;;;5049673;28;20649;-89
2022/07/07 01:37:00;;;;;;;0.80;0.80;;;14.60;78.50;;;;;;5048764;28;21140;-87
2022/07/07 01:39:30;;;;;;;1.40;1.27;;;14.70;76.80;;;;;;5049100;28;20626;-87
2022/07/07 01:41:57;;;;;;;1.50;0.90;;;14.70;76.50;;;;;;5048924;28;20615;-90
2022/07/07 01:44:25;;;;;;;1.13;0.93;;;;;;;;;;5048984;28;20622;-87
2022/07/07 01:46:53;;;;;;;1.30;1.20;;;14.80;74.70;;;;;;5049264;28;20642;-90
2022/07/07 01:49:21;;;;;;;1.10;1.10;;;14.80;74.40;;;;;;5048772;28;20618;-87
2022/07/07 01:51:48;;;;;;;2.23;1.20;;;14.80;74.90;;;;;;5048991;28;20646;-89
2022/07/07 01:54:16;;;;;;;1.97;1.23;;;14.70;76.20;;;;;;5048831;28;20618;-89
2022/07/07 01:56:45;;;;;;;1.20;1.10;;;14.60;77.00;;;;;;5048819;28;20654;-87
2022/07/07 01:59:15;;;;;;;1.17;1.10;;;14.60;77.70;;;;;;5049284;28;20618;-88
2022/07/07 02:01:42;;;;;;;1.33;1.23;;;14.60;77.50;;;;;;5049027;28;20683;-90
2022/07/07 02:04:09;;;;;;;1.33;1.23;;;14.60;78.00;;;;;;5048865;28;21057;-89
2022/07/07 02:06:38;;;;;;;1.47;1.37;;;14.70;77.10;;;;;;5048689;28;20614;-90
2022/07/07 02:09:05;;;;;;;1.07;1.07;;;14.70;75.00;;;;;;5049153;28;20610;-89
2022/07/07 02:11:32;;;;;;;1.50;0.90;;;14.80;75.30;;;;;;5049121;28;20650;-88
2022/07/07 02:14:00;;;;;;;3.63;1.10;;;14.80;73.20;;;;;;5048873;28;20699;-87
2022/07/07 02:16:27;;;;;;;0.73;0.70;;;14.90;73.70;;;;;;5047632;28;20621;-88
2022/07/07 02:18:57;;;;;;;1.57;0.90;;;14.90;72.80;;;;;;5049010;28;20602;-88
2022/07/07 02:21:24;;;;;;;1.20;1.10;;;15.00;71.60;;;;;;5049129;28;20607;-90
2022/07/07 02:23:54;;;;;;;0.80;0.80;;;15.00;72.20;;;;;;5052590;28;20599;-89
2022/07/07 02:26:21;;;;;;;0.80;0.80;;;15.00;71.90;;;;;;5052415;28;20652;-87
2022/07/07 02:28:49;;;;;;;1.90;1.20;;;14.90;72.70;;;;;;5052450;28;20962;-88
2022/07/07 02:31:17;;;;;;;2.03;1.30;;;14.90;73.80;;;;;;5052251;28;21408;-88
2022/07/07 02:33:45;;;;;;;1.30;1.20;;;15.00;75.00;;;;;;5052479;28;20613;-85
2022/07/07 02:36:12;;;;;;;1.20;1.13;;;14.90;75.30;;;;;;5052154;28;20613;-88
2022/07/07 02:38:40;;;;;;;1.33;1.23;;;;;;;;;;5052184;28;20613;-89
2022/07/07 02:41:08;;;;;;;1.13;1.03;;;14.90;74.00;;;;;;5052939;28;20654;-87
2022/07/07 02:43:35;;;;;;;1.40;1.30;;;14.80;74.70;;;;;;5052135;28;20618;-87
2022/07/07 02:46:03;;;;;;;2.40;1.23;;;14.90;74.70;;;;;;5053478;28;20633;-87
2022/07/07 02:48:32;;;;;;;1.30;1.20;;;14.90;74.40;;;;;;5053108;28;21429;-89
2022/07/07 02:50:59;;;;;;;1.43;1.30;;;14.80;73.70;;;;;;5053984;28;20684;-89
2022/07/07 02:53:26;;;;;;;1.87;1.27;;;14.80;74.50;;;;;;5052535;28;20629;-87
2022/07/07 02:55:52;;;;;;;2.03;1.40;;;14.90;74.20;;;;;;5051738;28;20606;-87
2022/07/07 02:58:22;;;;;;;1.13;1.00;;;14.90;73.70;;;;;;5051959;28;20667;-88
2022/07/07 03:00:50;;;;;;;7.20;1.33;;;14.80;72.30;;;;;;5052116;28;20630;-88
2022/07/07 03:03:18;;;;;;;0.80;0.80;;;15.00;72.70;;;;;;5052116;28;20676;-87
2022/07/07 03:05:46;;;;;;;1.03;1.00;;;14.90;75.90;;;;;;5052248;28;20675;-85
2022/07/07 03:08:14;;;;;;;1.40;1.30;;;14.80;75.00;;;;;;5052223;28;20617;-89
2022/07/07 03:10:41;;;;;;;1.07;1.07;;;;;;;;;;5052078;28;20645;-88
2022/07/07 03:13:08;;;;;;;2.30;1.10;;;14.70;75.20;;;;;;5052452;28;20614;-88
2022/07/07 03:15:35;;;;;;;1.80;1.50;;;14.70;76.50;;;;;;5052508;28;20625;-87
2022/07/07 03:18:02;;;;;;;1.00;1.00;;;14.70;76.20;;;;;;5052796;28;20656;-87
2022/07/07 03:20:29;;;;;;;1.10;1.00;;;14.70;74.80;;;;;;5052294;28;20672;-87
2022/07/07 03:22:57;;;;;;;0.87;0.87;;;14.60;75.20;;;;;;5052128;28;20687;-87
2022/07/07 03:25:24;;;;;;;1.47;1.37;;;14.60;75.00;;;;;;5052004;28;20621;-88
2022/07/07 03:27:51;;;;;;;0.83;0.83;;;;;;;;;;5051740;28;20633;-87
2022/07/07 03:30:18;;;;;;;1.20;1.20;;;14.60;75.00;;;;;;5052080;28;20618;-89
2022/07/07 03:32:45;;;;;;;0.87;0.87;;;;;;;;;;5051545;28;20660;-88
2022/07/07 03:35:13;;;;;;;1.30;1.20;;;14.70;74.10;;;;;;5051711;28;20641;-88
2022/07/07 03:37:40;;;;;;;1.43;1.17;;;14.20;77.10;;;;;;5051187;28;20602;-88
2022/07/07 03:40:09;;;;;;;1.40;1.30;;;14.80;74.40;;;;;;5051543;28;20767;-87
2022/07/07 03:42:38;;;;;;;1.80;1.70;;;14.90;73.40;;;;;;5051037;28;20727;-88
2022/07/07 03:45:06;;;;;;;2.10;1.33;;;14.90;73.30;;;;;;5051532;28;20614;-88
2022/07/07 03:47:34;;;;;;;4.10;1.10;;;14.90;74.20;;;;;;5050899;28;20626;-89
2022/07/07 03:50:01;;;;;;;1.60;1.50;;;14.90;74.90;;;;;;5051257;28;20634;-88
2022/07/07 03:52:28;;;;;;;1.67;1.57;;;15.00;75.00;;;;;;5050464;28;20646;-88
2022/07/07 03:54:54;;;;;;;1.63;1.13;;;15.00;74.80;;;;;;5051138;28;20684;-87
2022/07/07 03:57:23;;;;;;;1.47;1.37;;;15.20;73.80;;;;;;5050816;28;20594;-88
2022/07/07 03:59:50;;;;;;;0.90;0.90;;;15.00;74.40;;;;;;5051054;28;20626;-88
2022/07/07 04:02:17;;;;;;;1.50;1.07;;;15.00;74.20;;;;;;5050991;28;20661;-88
2022/07/07 04:04:43;;;;;;;1.07;0.97;;;15.00;73.10;;;;;;5050733;28;20652;-87
2022/07/07 04:07:10;;;;;;;0.97;0.87;;;14.90;72.80;;;;;;5051321;28;20661;-88
2022/07/07 04:09:37;;;;;;;1.87;1.70;;;14.90;73.70;;;;;;5050937;28;20598;-88
2022/07/07 04:12:05;;;;;;;1.30;1.20;;;15.10;73.60;;;;;;5050494;28;20634;-89
2022/07/07 04:14:34;;;;;;;0.90;0.90;;;15.10;73.80;;;;;;5050147;28;20609;-89
2022/07/07 04:17:02;;;;;;;1.10;1.00;;;15.30;73.20;;;;;;5050404;28;20607;-87
2022/07/07 04:19:29;;;;;;;0.97;0.87;;;15.20;72.50;;;;;;5050235;28;20622;-88
2022/07/07 04:21:58;;;;;;;1.17;1.10;;;15.20;71.50;;;;;;5050829;28;20709;-87
2022/07/07 04:24:25;;;;;;;4.03;1.50;;;15.30;71.70;;;;;;5050468;28;20630;-88
2022/07/07 04:26:52;;;;;;;1.30;1.20;;;15.30;71.30;;;;;;5050386;28;20622;-88
2022/07/07 04:29:19;;;;;;;1.10;1.00;;;;;;;;;;5049993;28;20688;-88
2022/07/07 04:31:48;;;;;;;1.97;0.83;;;15.30;70.90;;;;;;5049690;28;20766;-88
2022/07/07 04:34:15;;;;;;;1.07;1.00;;;15.30;72.40;;;;;;5052003;28;20626;-87
2022/07/07 04:36:42;;;;;;;1.60;0.90;;;15.30;71.20;;;;;;5048961;28;20617;-85
2022/07/07 04:39:09;;;;;;;0.93;0.93;;;15.30;70.60;;;;;;5049426;28;20595;-88
2022/07/07 04:41:37;;;;;;;1.20;1.10;;;15.40;72.30;;;;;;5049400;28;20618;-86
2022/07/07 04:44:05;;;;;;;1.23;1.13;;;15.40;71.90;;;;;;5049062;28;20980;-87
2022/07/07 04:46:32;;;;;;;1.90;1.30;;;15.60;72.20;;;;;;5048976;28;20622;-87
2022/07/07 04:49:00;;;;;;;1.13;1.10;;;15.70;70.40;;;;;;5049370;28;21023;-87
2022/07/07 04:51:27;;;;;;;0.70;0.70;;;15.80;70.40;;;;;;5051754;28;20650;-87
2022/07/07 04:53:54;;;;;;;1.70;1.60;;;15.60;70.90;;;;;;5049288;28;20744;-87
2022/07/07 04:56:29;;;;;;;1.10;1.00;;;15.70;71.10;;;;;;5050181;28;20660;-88
2022/07/07 04:58:56;;;;;;;1.67;1.57;;;15.70;72.90;;;;;;5049312;28;20668;-87
2022/07/07 05:01:23;;;;;;;1.40;1.30;;;15.60;72.20;;;;;;5049447;28;20610;-87
2022/07/07 05:03:50;;;;;;;1.00;1.00;;;15.50;70.90;;;;;;5049467;28;20618;-88
2022/07/07 05:06:21;;;;;;;1.70;1.23;;;15.40;71.20;;;;;;5049356;28;20657;-87
2022/07/07 05:08:48;;;;;;;1.20;1.10;;;15.50;73.10;;;;;;5049766;28;20676;-87
2022/07/07 05:11:15;;;;;;;1.80;1.30;;;15.70;72.30;;;;;;5049564;28;20638;-88
2022/07/07 05:13:42;;;;;;;1.33;1.23;;;15.70;72.50;;;;;;5049174;28;20614;-89
2022/07/07 05:16:09;;;;;;;1.47;1.37;;;15.80;71.40;;;;;;5049456;28;20602;-89
2022/07/07 05:18:36;;;;;;;1.20;1.17;;;15.90;73.30;;;;;;5049062;28;20610;-88
2022/07/07 05:21:03;;;;;;;1.03;1.03;;;16.00;71.00;;;;;;5049268;28;20729;-87
2022/07/07 05:23:31;;;;;;;1.33;1.23;;;16.00;70.80;;;;;;5048933;28;20721;-88
2022/07/07 05:25:58;;;;;;;1.37;1.27;;;16.10;71.00;;;;;;5048929;28;21363;-87
2022/07/07 05:28:25;;;;;;;0.70;0.70;;;16.10;70.60;;;;;;5048983;28;21172;-87
2022/07/07 05:30:52;;;;;;;1.20;1.10;;;16.00;70.20;;;;;;5048929;28;20676;-88
2022/07/07 05:33:19;;;;;;;1.27;1.17;;;15.90;70.60;;;;;;5048587;28;21030;-88
2022/07/07 05:35:46;;;;;;;1.40;1.30;;;15.90;72.00;;;;;;5049178;28;20762;-88
2022/07/07 05:38:13;;;;;;;0.80;0.80;;;15.90;70.70;;;;;;5048759;28;20617;-88
2022/07/07 05:40:41;;;;;;;1.47;1.37;;;15.90;70.80;;;;;;5048670;28;20626;-88
2022/07/07 05:43:08;;;;;;;2.07;1.50;;;15.70;71.00;;;;;;5048892;28;20703;-89
2022/07/07 05:45:35;;;;;;;1.70;1.07;;;15.70;71.90;;;;;;5048896;28;21196;-88
2022/07/07 05:48:02;;;;;;;1.53;1.13;;;15.80;73.30;;;;;;5048275;28;21233;-88
2022/07/07 05:50:29;;;;;;;1.03;0.93;;;16.00;72.50;;;;;;5048847;28;20634;-87
2022/07/07 05:52:56;;;;;;;1.37;1.27;;;16.20;72.90;;;;;;5048552;28;20688;-88
2022/07/07 05:55:22;;;;;;;1.40;1.07;;;16.40;72.20;;;;;;5048049;28;20671;-88
2022/07/07 05:57:51;;;;;;;1.40;1.27;;;16.50;70.20;;;;;;5048450;28;20614;-88
2022/07/07 06:00:18;;;;;;;1.30;1.20;;;16.50;70.60;;;;;;5048591;28;20610;-88
2022/07/07 06:02:45;;;;;;;1.23;1.20;;;16.50;70.00;;;;;;5048959;28;20630;-88
2022/07/07 06:05:12;;;;;;;0.90;0.90;;;16.60;70.60;;;;;;5048772;28;20725;-87
2022/07/07 06:07:39;;;;;;;0.90;0.90;;;16.60;70.50;;;;;;5048390;28;20622;-89
2022/07/07 06:10:08;;;;;;;1.43;1.33;;;16.80;70.00;;;;;;5048947;28;20687;-89
2022/07/07 06:12:35;;;;;;;1.17;1.10;;;16.80;70.30;;;;;;5048576;28;20646;-89
2022/07/07 06:15:04;;;;;;;0.93;0.90;;;17.00;69.80;;;;;;5048557;28;20610;-88
2022/07/07 06:17:30;;;;;;;1.07;0.87;;;17.10;69.30;;;;;;5048778;28;21224;-89
2022/07/07 06:19:58;;;;;;;1.77;1.67;;;17.20;69.50;;;;;;5048582;28;20622;-86
2022/07/07 06:22:25;;;;;;;1.80;1.70;;;17.50;69.50;;;;;;5047954;28;20610;-87
2022/07/07 06:24:52;;;;;;;1.07;0.83;;;17.70;66.40;;;;;;5048717;28;20667;-89
2022/07/07 06:27:19;;;;;;;2.40;1.00;;;17.80;65.90;;;;;;5048415;28;20618;-87
2022/07/07 06:29:46;;;;;;;1.23;1.13;;;17.70;65.40;;;;;;5048306;28;20621;-88
2022/07/07 06:32:15;;;;;;;1.10;1.03;;;17.70;65.10;;;;;;5048373;28;20674;-88
2022/07/07 06:34:42;;;;;;;0.97;0.93;;;17.70;65.80;;;;;;5047809;28;20671;-88
2022/07/07 06:37:09;;;;;;;1.67;1.00;;;;;;;;;;5048046;28;20626;-87
2022/07/07 06:39:36;;;;;;;0.70;0.70;;;17.90;66.00;;;;;;5048160;28;21184;-87
2022/07/07 06:42:04;;;;;;;1.13;1.00;;;17.80;65.80;;;;;;5048442;28;20726;-87
2022/07/07 06:44:31;;;;;;;0.80;0.80;;;18.00;65.20;;;;;;5048313;28;21172;-85
2022/07/07 06:46:59;;;;;;;0.80;0.80;;;18.20;65.00;;;;;;5048114;28;20629;-87
2022/07/07 06:49:28;;;;;;;1.20;0.90;;;18.20;65.60;;;;;;5047861;28;20630;-86
2022/07/07 06:51:56;;;;;;;0.97;0.80;;;18.20;65.40;;;;;;5048359;28;20656;-88
2022/07/07 06:54:23;;;;;;;0.97;0.80;;;18.50;64.10;;;;;;5048324;28;20614;-88
2022/07/07 06:56:50;;;;;;;1.00;1.00;;;18.40;64.70;;;;;;5049803;28;20626;-86
2022/07/07 06:59:17;;;;;;;1.60;1.40;;;18.50;64.40;;;;;;5048837;28;20619;-88
2022/07/07 07:01:45;;;;;;;0.90;0.90;;;18.40;64.40;;;;;;5047821;28;21206;-87
2022/07/07 07:04:13;;;;;;;1.37;1.27;;;18.60;65.10;;;;;;5047993;28;21003;-86
2022/07/07 07:06:42;;;;;;;1.00;0.90;;;18.60;66.00;;;;;;5047573;28;20632;-87
2022/07/07 07:09:08;;;;;;;1.60;1.10;;;18.70;63.40;;;;;;5049104;28;20653;-85
2022/07/07 07:11:36;;;;;;;1.27;1.07;;;18.70;65.00;;;;;;5051511;28;20720;-88
2022/07/07 07:14:03;;;;;;;1.30;1.20;;;18.90;64.80;;;;;;5051513;28;21200;-88
2022/07/07 07:16:30;;;;;;;1.57;1.47;;;18.90;64.40;;;;;;5050994;28;20676;-87
2022/07/07 07:18:57;;;;;;;1.00;0.90;;;19.00;64.20;;;;;;5051292;28;20626;-87
2022/07/07 07:21:24;;;;;;;0.90;0.90;;;19.00;64.60;;;;;;5051421;28;21036;-88
2022/07/07 07:23:52;;;;;;;1.30;1.20;;;19.10;64.10;;;;;;5048545;28;20721;-87
2022/07/07 07:26:19;;;;;;;2.03;1.20;;;19.30;64.50;;;;;;5051144;28;21410;-89
2022/07/07 07:28:46;;;;;;;1.33;1.23;;;19.20;64.80;;;;;;5042793;28;20624;-87
2022/07/07 07:31:13;;;;;;;1.47;1.37;;;19.10;64.10;;;;;;5050868;28;20687;-87
2022/07/07 07:33:40;;;;;;;1.70;1.60;;;19.30;66.00;;;;;;5050544;28;21025;-87
2022/07/07 07:36:09;;;;;;;1.40;1.30;;;19.40;67.10;;;;;;5051395;28;20889;-88
2022/07/07 07:38:37;;;;;;;1.43;1.33;;;19.40;67.70;;;;;;5051136;28;20703;-89
2022/07/07 07:41:07;;;;;;;1.63;1.47;;;19.40;65.10;;;;;;5050421;28;20626;-88
2022/07/07 07:43:34;;;;;;;1.27;1.17;;;19.50;66.60;;;;;;5050753;28;20622;-86
2022/07/07 07:46:01;;;;;;;1.40;1.30;;;19.50;64.90;;;;;;5051263;28;20626;-87
2022/07/07 07:48:28;;;;;;;1.40;1.10;;;19.50;64.60;;;;;;5051067;28;20622;-88
2022/07/07 07:50:55;;;;;;;1.30;1.20;;;19.60;64.70;;;;;;5050976;28;20613;-86
2022/07/07 07:53:22;;;;;;;1.27;1.17;;;19.70;64.70;;;;;;5050665;28;20761;-88
2022/07/07 07:55:50;;;;;;;1.83;1.63;;;20.00;65.00;;;;;;5050495;28;21255;-88
2022/07/07 07:58:18;;;;;;;2.30;1.70;;;20.00;63.90;;;;;;5050511;28;20629;-88
2022/07/07 08:00:45;;;;;;;1.50;1.40;;;19.50;63.70;;;;;;5050640;28;21303;-88
2022/07/07 08:03:12;;;;;;;1.53;1.43;;;19.50;64.50;;;;;;5050771;28;20680;-88
2022/07/07 08:05:39;;;;;;;1.03;1.00;;;19.40;65.20;;;;;;5050606;28;20630;-88
2022/07/07 08:08:06;;;;;;;1.50;1.40;;;19.40;65.40;;;;;;5050614;28;20650;-89
2022/07/07 08:10:33;;;;;;;1.70;1.60;;;19.30;66.10;;;;;;5058032;28;20701;-88
2022/07/07 08:13:00;;;;;;;1.20;1.10;;;19.20;66.80;;;;;;5051806;28;20649;-88
2022/07/07 08:15:28;;;;;;;2.50;1.83;;;19.10;64.90;;;;;;5049767;28;20653;-88
2022/07/07 08:17:55;;;;;;;1.77;1.67;;;19.00;65.60;;;;;;5050143;28;20610;-87
2022/07/07 08:20:22;;;;;;;2.37;2.17;;;18.90;66.10;;;;;;5049853;28;21224;-87
2022/07/07 08:22:49;;;;;;;2.03;1.50;;;18.90;67.00;;;;;;5050185;28;20618;-89
2022/07/07 08:25:17;;;;;;;1.77;1.67;;;18.90;67.00;;;;;;5050198;28;20607;-90
2022/07/07 08:27:44;;;;;;;1.33;1.23;;;18.90;67.40;;;;;;5050326;28;20630;-89
2022/07/07 08:30:11;;;;;;;1.73;1.57;;;19.00;67.00;;;;;;5050677;28;20610;-90
2022/07/07 08:32:43;;;;;;;1.80;1.20;;;19.10;67.50;;;;;;5047717;28;20661;-88
2022/07/07 08:35:10;;;;;;;0.97;0.87;;;19.20;67.40;;;;;;5047548;28;20632;-88
2022/07/07 08:37:37;;;;;;;1.63;1.53;;;19.10;67.50;;;;;;5049446;28;20684;-90
2022/07/07 08:40:05;;;;;;;1.40;1.30;;;19.20;66.10;;;;;;5050032;28;20654;-89
2022/07/07 08:42:32;;;;;;;1.77;1.67;;;19.10;67.70;;;;;;5030339;28;20599;-89
2022/07/07 08:44:59;;;;;;;1.33;1.23;;;19.20;67.70;;;;;;5030244;28;20651;-88
2022/07/07 08:47:26;;;;;;;1.60;1.50;;;19.30;68.50;;;;;;5036156;28;21228;-89
2022/07/07 08:49:55;;;;;;;1.73;1.60;;;19.50;67.30;;;;;;5049753;28;20625;-87
2022/07/07 08:52:22;;;;;;;1.87;1.77;;;19.60;68.40;;;;;;5049472;28;20630;-88
2022/07/07 08:54:49;;;;;;;1.37;1.27;;;19.70;67.80;;;;;;5048225;28;20629;-87
2022/07/07 08:57:17;;;;;;;1.40;1.30;;;19.80;67.40;;;;;;5048826;28;20650;-89
2022/07/07 08:59:43;;;;;;;1.97;1.87;;;19.80;67.60;;;;;;5049785;28;20618;-90
2022/07/07 09:02:11;;;;;;;1.53;1.43;;;19.80;68.00;;;;;;5049463;28;20626;-88
2022/07/07 09:04:38;;;;;;;2.60;1.90;;;19.90;68.10;;;;;;5048914;28;20611;-88
2022/07/07 09:07:07;;;;;;;1.67;1.57;;;20.20;70.00;;;;;;5048791;28;20654;-87
2022/07/07 09:09:42;;;;;;;1.63;1.53;;;20.40;68.70;;;;;;5048940;28;20626;-87
2022/07/07 09:12:11;;;;;;;3.43;2.30;;;20.60;68.40;;;;;;5033306;28;20689;-89
2022/07/07 09:14:42;;;;;;;2.00;1.80;;;20.50;67.90;;;;;;5049810;28;21233;-88
2022/07/07 09:17:26;;;;;;;1.50;1.40;;;20.80;68.30;;;;;;5049572;28;20687;-88
2022/07/07 09:20:01;;;;;;;1.60;1.50;;;21.00;67.60;;;;;;5047990;28;20653;-89
2022/07/07 09:22:48;;;;;;;1.97;1.70;;;21.10;66.80;;;;;;5049278;28;20638;-88
2022/07/07 09:25:15;;;;;;;1.80;1.70;;;21.40;68.50;;;;;;5050001;28;20700;-88
2022/07/07 09:27:55;;;;;;;2.37;1.87;;;21.30;66.80;;;;;;5049455;28;20630;-89
2022/07/07 09:30:31;;;;;;;1.40;1.30;;;20.90;66.70;;;;;;5049017;28;20650;-89
2022/07/07 09:32:59;;;;;;;1.50;1.40;;;20.70;69.20;;;;;;5048781;28;21215;-87
2022/07/07 09:38:17;;;;;;;1.10;0.90;;;20.10;68.80;;;;;;5045652;28;20614;-87
2022/07/07 09:41:03;;;;;;;1.57;1.40;;;20.10;70.70;;;;;;5046430;28;20613;-87
2022/07/07 09:43:32;;;;;;;1.03;1.00;;;20.00;70.70;;;;;;5050111;28;21200;-86
2022/07/07 09:46:17;;;;;;;0.60;0.50;;;19.80;72.30;;;;;;5048470;28;20722;-87
2022/07/07 09:48:46;;;;;;;0.80;0.80;;;19.70;73.10;;;;;;5048193;28;20634;-88
2022/07/07 09:51:23;;;;;;;1.53;1.20;;;19.60;73.60;;;;;;5047681;28;20670;-86
2022/07/07 09:53:59;;;;;;;1.80;1.70;;;19.50;75.40;;;;;;5047860;28;21066;-88
2022/07/07 09:56:28;;;;;;;1.17;1.00;;;19.40;73.10;;;;;;5048758;28;20709;-86
2022/07/07 09:58:57;;;;;;;1.30;1.20;;;19.40;73.40;;;;;;5047908;28;20626;-88
2022/07/07 10:01:26;;;;;;;1.57;1.13;;;19.30;73.30;;;;;;5048001;28;20684;-85
2022/07/07 10:03:56;;;;;;;0.80;0.80;;;19.40;73.80;;;;;;5048970;28;20622;-89
2022/07/07 10:06:25;;;;;;;1.50;1.40;;;19.30;73.50;;;;;;5048572;28;20616;-88
2022/07/07 10:09:02;;;;;;;1.23;1.00;;;19.40;75.90;;;;;;5048553;28;20617;-87
2022/07/07 10:11:39;;;;;;;0.90;0.90;;;19.70;72.50;;;;;;5048513;28;21128;-89
2022/07/07 10:14:17;;;;;;;1.20;1.10;;;19.70;73.00;;;;;;5048337;28;20658;-88
2022/07/07 10:16:45;;;;;;;1.20;1.20;;;19.80;72.90;;;;;;5048069;28;20746;-87
2022/07/07 10:19:14;;;;;;;1.10;0.83;;;19.70;73.40;;;;;;5048792;28;20705;-88
2022/07/07 10:21:42;;;;;;;1.23;1.00;;;19.80;73.00;;;;;;5048994;28;20618;-88
2022/07/07 10:24:12;;;;;;;1.47;1.37;;;19.70;73.00;;;;;;5048838;28;20601;-89
2022/07/07 10:26:40;;;;;;;1.37;1.20;;;19.60;72.60;;;;;;5049403;28;20634;-85
2022/07/07 10:29:09;;;;;;;2.00;1.87;;;19.90;72.80;;;;;;5048912;28;20641;-86
2022/07/07 10:31:37;;;;;;;0.97;0.93;;;20.20;72.70;;;;;;5049596;28;20653;-88
2022/07/07 10:34:06;;;;;;;1.80;1.60;;;20.40;73.20;;;;;;5049634;28;20673;-88
2022/07/07 10:37:02;;;;;;;2.33;1.37;;;20.70;71.70;;;;;;5047936;28;21231;-88
2022/07/07 10:39:35;;;;;;;1.80;1.70;;;20.80;70.70;;;;;;5048079;28;21176;-88
2022/07/07 10:42:07;;;;;;;1.13;1.13;;;20.70;69.70;;;;;;5048566;28;20669;-88
2022/07/07 10:44:38;;;;;;;1.20;1.10;;;20.60;70.20;;;;;;5052655;28;20744;-88
2022/07/07 10:47:25;;;;;;;1.50;1.40;;;20.50;70.70;;;;;;5052468;28;21474;-88
2022/07/07 10:49:54;;;;;;;1.70;1.60;;;20.40;71.10;;;;;;5051888;28;21171;-87
2022/07/07 10:52:23;;;;;;;1.33;1.23;;;20.30;70.70;;;;;;5052512;28;20958;-87
2022/07/07 10:54:53;;;;;;;1.40;1.30;;;20.20;72.10;;;;;;5051997;28;21383;-88
2022/07/07 10:57:22;;;;;;;1.20;1.10;;;20.10;71.90;;;;;;5052296;28;21070;-87
2022/07/07 11:00:16;;;;;;;1.53;1.43;;;20.30;71.10;;;;;;5052365;28;20618;-88
2022/07/07 11:02:47;;;;;;;1.20;1.10;;;20.20;70.20;;;;;;5052443;28;21263;-88
2022/07/07 11:05:32;;;;;;;0.90;0.90;;;20.20;70.70;;;;;;5052171;28;20622;-90
2022/07/07 11:08:10;;;;;;;2.10;1.47;;;20.10;71.40;;;;;;5052278;28;20637;-88
2022/07/07 11:10:56;;;;;;;1.27;1.17;;;20.00;72.10;;;;;;5051656;28;21342;-88
2022/07/07 11:13:32;;;;;;;1.30;1.20;;;19.90;71.90;;;;;;5051331;28;21225;-89
2022/07/07 11:16:13;;;;;;;1.30;1.20;;;19.70;73.10;;;;;;5050560;28;20722;-90
2022/07/07 11:18:42;;;;;;;1.40;1.30;;;19.60;75.50;;;;;;5051658;28;21578;-88
2022/07/07 11:21:09;;;;;;;0.93;0.93;;;;;;;;;;5051643;28;20622;-88
2022/07/07 11:23:52;;;;;;;1.80;1.20;;;19.40;79.30;;;;;;5051801;28;21019;-88
2022/07/07 11:26:23;;;;;;;1.50;1.20;;;19.30;77.90;;;;;;5051404;28;20629;-90
2022/07/07 11:28:51;;;;;;;2.10;1.50;;;19.30;79.90;;;;;;5051502;28;20658;-89
2022/07/07 11:31:18;;;;;;;1.70;1.60;;;19.40;80.30;;;;;;5051809;28;20618;-88
2022/07/07 11:33:50;;;;;;;1.27;1.17;;;19.60;80.30;;;;;;5051802;28;20638;-90
2022/07/07 11:36:19;;;;;;;1.07;0.97;;;19.60;79.40;;;;;;5051789;28;20617;-87
2022/07/07 11:38:49;;;;;;;1.10;1.00;;;19.70;77.30;;;;;;5051347;28;20736;-89
2022/07/07 11:41:16;;;;;;;2.43;1.10;;;19.70;76.50;;;;;;5051101;28;20610;-90
2022/07/07 11:43:44;;;;;;;0.83;0.83;;;19.70;77.50;;;;;;5051424;28;20621;-89
2022/07/07 11:46:11;;;;;;;2.53;0.83;;;19.70;78.60;;;;;;5051371;28;20625;-88
2022/07/07 11:48:41;;;;;;;1.73;1.37;;;19.80;76.70;;;;;;5050881;28;20634;-89
2022/07/07 11:51:11;;;;;;;1.37;1.03;;;19.80;76.90;;;;;;5051564;28;20633;-88
2022/07/07 11:53:37;;;;;;;1.37;1.27;;;19.80;77.30;;;;;;5050791;28;20724;-89
2022/07/07 11:56:07;;;;;;;1.10;1.10;;;19.70;78.60;;;;;;5050551;28;20646;-88
2022/07/07 11:58:37;;;;;;;1.23;1.07;;;19.60;78.60;;;;;;5051354;28;20617;-90
2022/07/07 12:01:13;;;;;;;1.03;1.03;;;19.60;78.90;;;;;;5051669;28;20606;-87
2022/07/07 12:03:41;;;;;;;1.43;1.33;;;19.80;75.90;;;;;;5051659;28;20676;-91
2022/07/07 12:06:09;;;;;;;1.50;1.40;;;19.80;76.70;;;;;;5051164;28;20610;-87
2022/07/07 12:08:37;;;;;;;1.00;1.00;;;19.80;76.00;;;;;;5051293;28;20622;-90
2022/07/07 12:11:06;;;;;;;1.33;1.23;;;19.90;75.90;;;;;;5051247;28;20721;-87
2022/07/07 12:13:33;;;;;;;1.77;1.13;;;19.80;74.30;;;;;;5051008;28;20638;-89
2022/07/07 12:16:04;;;;;;;1.40;1.30;;;19.50;73.60;;;;;;5051658;28;21052;-89
2022/07/07 12:18:38;;;;;;;1.40;1.30;;;19.60;74.10;;;;;;5051596;28;21186;-88
2022/07/07 12:21:06;;;;;;;1.40;1.30;;;19.60;75.90;;;;;;5053327;28;20637;-89
2022/07/07 12:23:38;;;;;;;1.27;1.17;;;19.90;74.60;;;;;;5052460;28;20636;-89
2022/07/07 12:26:10;;;;;;;1.43;1.33;;;19.50;76.40;;;;;;5052759;28;20720;-89
2022/07/07 12:28:39;;;;;;;2.10;1.90;;;19.70;75.20;;;;;;5052078;28;20648;-88
2022/07/07 12:31:07;;;;;;;1.50;1.40;;;19.60;74.80;;;;;;5051439;28;20618;-89
2022/07/07 12:33:37;;;;;;;1.53;1.30;;;19.70;74.20;;;;;;5051604;28;20765;-89
2022/07/07 12:36:12;;;;;;;1.33;1.10;;;19.70;73.30;;;;;;5051621;28;20610;-88
2022/07/07 12:38:42;;;;;;;1.27;1.17;;;19.70;73.30;;;;;;5051170;28;21319;-87
2022/07/07 12:41:09;;;;;;;1.93;1.63;;;19.80;75.40;;;;;;5050462;28;21405;-89
2022/07/07 12:43:37;;;;;;;1.53;1.30;;;19.70;72.70;;;;;;5050050;28;20675;-89
2022/07/07 12:46:09;;;;;;;1.13;1.03;;;19.80;71.90;;;;;;5050046;28;20641;-88
2022/07/07 12:48:46;;;;;;;2.30;1.23;;;19.70;71.70;;;;;;5049330;28;21159;-88
2022/07/07 12:51:13;;;;;;;2.07;1.23;;;19.60;72.10;;;;;;5049562;28;20613;-87
2022/07/07 12:53:40;;;;;;;2.20;1.37;;;19.60;72.10;;;;;;5049676;28;20717;-88
2022/07/07 12:56:12;;;;;;;1.43;1.17;;;19.50;72.70;;;;;;5050387;28;20712;-87
2022/07/07 12:58:43;;;;;;;1.67;1.57;;;19.50;73.10;;;;;;5050530;28;20614;-87
2022/07/07 13:01:16;;;;;;;1.43;1.33;;;19.60;73.70;;;;;;5051719;28;20622;-88
2022/07/07 13:03:46;;;;;;;1.40;1.30;;;19.60;73.00;;;;;;5054261;28;21160;-89